Vremea acum in Rupea - Romania

Vrei sa afli care e starea vremii acum in Harghita - Romania? Dorim sa iti furnizam starea vremii pentru Harghita - Romania. Starea vremii Harghita - Romania pentru astazi.

Vremea acum in Rupea

Temperatura: 6.8 °C

Este: Senin
Se simte ca: 6.9 °C
Innorat: 6 %
Precipitatii: 0 %
Presiune atmosferica: 1018 hPa
Umiditate: 79%
Vizibilitate: 10 km
Vantul bate din ENE cu 3.6 km/h

Evolutia vremii in Rupea pe ore

Ora: 04:00
Senin
Temperatura: 6.5°C
Sansa de precipitatii: 0%
Ora Descriere Temp Se simte Precipitatii Umiditate Vant
00:00Senin7.6°0%77%ENE 4.7 KM/H
01:00Senin7.8°7.5°0%77%NE 4.3 KM/H
02:00Senin7.2°6.7°0%78%NE 4.7 KM/H
03:00Senin6.8°6.9°0%79%ENE 3.6 KM/H
04:00Senin6.5°6.3°0%80%ENE 3.6 KM/H
05:00Senin6.1°5.6°0%81%ENE 4.3 KM/H
06:00Senin5.8°5.2°0%82%E 4.3 KM/H
07:00Senin7.1°6.8°0%80%E 4 KM/H
08:00Senin11.7°12.3°0%73%ESE 3.2 KM/H
09:00Senin13.9°14.4°0%68%SSE 4.3 KM/H
10:00Senin16°16°0%63%S 5.4 KM/H
11:00Senin17.7°17.7°0%57%SSW 6.1 KM/H
12:00Senin19.3°19.3°0%52%SSW 6.5 KM/H
13:00Senin20.2°20.2°0%46%SSW 7.6 KM/H
14:00Senin20.8°20.8°0%42%SSW 8.3 KM/H
15:00Senin21.2°21.2°0%41%SW 9 KM/H
16:00Senin21.3°21.3°0%41%WSW 9 KM/H
17:00Senin21.2°21.2°0%41%WSW 9 KM/H
18:00Senin20.9°20.9°0%45%W 9 KM/H
19:00Senin19.4°19.4°0%57%W 5.8 KM/H
20:00Patchy rain nearby14.3°14.3°64%64%SW 1.4 KM/H
21:00Senin11.9°12.5°0%69%E 3.2 KM/H
22:00Senin10.7°10.5°0%74%E 5.4 KM/H
23:00Senin9.8°9.4°0%79%ESE 5.4 KM/H




tutorials